createdAt,value
2023-06-11T00:01:28.385Z,15.55
2023-06-11T00:05:31.006Z,15.52
2023-06-11T00:09:33.321Z,15.40
2023-06-11T00:13:35.638Z,15.38
2023-06-11T00:17:38.139Z,15.32
2023-06-11T00:21:44.982Z,15.20
2023-06-11T00:25:49.188Z,15.19
2023-06-11T00:29:55.165Z,15.12
2023-06-11T00:33:57.230Z,15.08
2023-06-11T00:37:59.734Z,15.05
2023-06-11T00:42:02.011Z,14.98
2023-06-11T00:46:04.468Z,14.87
2023-06-11T00:50:09.122Z,14.80
2023-06-11T00:54:17.281Z,14.81
2023-06-11T00:58:19.240Z,14.77
2023-06-11T01:02:44.564Z,14.67
2023-06-11T01:06:50.789Z,14.69
2023-06-11T01:10:53.386Z,14.58
2023-06-11T01:14:55.701Z,14.61
2023-06-11T01:19:21.796Z,14.71
2023-06-11T01:23:32.521Z,14.75
2023-06-11T01:28:05.095Z,14.61
2023-06-11T01:32:08.040Z,14.54
2023-06-11T01:36:11.949Z,14.49
2023-06-11T01:40:15.729Z,14.49
2023-06-11T01:44:26.526Z,14.50
2023-06-11T01:48:28.637Z,14.47
2023-06-11T01:52:30.867Z,14.37
2023-06-11T01:56:33.887Z,14.32
2023-06-11T02:00:35.968Z,14.25
2023-06-11T02:04:38.121Z,14.13
2023-06-11T02:08:40.312Z,14.11
2023-06-11T02:12:42.418Z,14.12
2023-06-11T02:16:44.538Z,13.99
2023-06-11T02:20:47.064Z,13.92
2023-06-11T02:24:49.361Z,13.85
2023-06-11T02:28:51.502Z,13.76
2023-06-11T02:32:53.613Z,13.76
2023-06-11T02:36:55.915Z,13.83
2023-06-11T02:40:57.778Z,13.81
2023-06-11T02:44:59.909Z,13.81
2023-06-11T02:49:02.103Z,13.68
2023-06-11T02:53:04.593Z,13.61
2023-06-11T02:57:06.768Z,13.64
2023-06-11T03:01:08.861Z,13.56
2023-06-11T03:05:11.306Z,13.67
2023-06-11T03:09:14.144Z,13.70
2023-06-11T03:13:16.255Z,13.65
2023-06-11T03:17:21.086Z,13.64
2023-06-11T03:21:23.431Z,13.67
2023-06-11T03:25:25.713Z,13.71
2023-06-11T03:29:28.735Z,13.65
2023-06-11T03:33:33.592Z,13.67
2023-06-11T03:37:35.869Z,13.67
2023-06-11T03:41:38.636Z,13.76
2023-06-11T03:45:41.481Z,13.73
2023-06-11T03:49:44.550Z,13.95
2023-06-11T03:53:47.022Z,13.97
2023-06-11T03:57:49.220Z,14.14
2023-06-11T04:01:51.364Z,14.20
2023-06-11T04:05:53.596Z,14.21
2023-06-11T04:09:56.086Z,14.33
2023-06-11T04:13:58.534Z,14.49
2023-06-11T04:18:01.004Z,14.48
2023-06-11T04:22:03.459Z,14.64
2023-06-11T04:26:08.936Z,14.79
2023-06-11T04:30:14.309Z,14.81
2023-06-11T04:34:18.217Z,14.78
2023-06-11T04:38:25.567Z,14.93
2023-06-11T04:42:30.158Z,15.06
2023-06-11T04:46:35.816Z,15.12
2023-06-11T04:50:40.025Z,15.31
2023-06-11T04:54:46.171Z,15.44
2023-06-11T04:58:50.399Z,15.56
2023-06-11T05:02:53.125Z,15.67
2023-06-11T05:06:55.984Z,15.85
2023-06-11T05:10:59.878Z,15.78
2023-06-11T05:15:04.197Z,15.94
2023-06-11T05:19:07.159Z,16.14
2023-06-11T05:23:11.739Z,16.33
2023-06-11T05:27:15.709Z,16.50
2023-06-11T05:31:22.599Z,16.71
2023-06-11T05:35:27.195Z,16.84
2023-06-11T05:39:29.508Z,17.08
2023-06-11T05:43:31.678Z,17.27
2023-06-11T05:47:34.392Z,17.43
2023-06-11T05:51:37.178Z,17.62
2023-06-11T05:55:40.236Z,17.72
2023-06-11T05:59:44.920Z,17.84
2023-06-11T06:03:47.340Z,18.04
2023-06-11T06:07:49.797Z,18.17
2023-06-11T06:11:52.773Z,18.27
2023-06-11T06:15:56.270Z,18.52
2023-06-11T06:20:01.801Z,18.65
2023-06-11T06:24:04.540Z,18.85
2023-06-11T06:28:07.062Z,18.96
2023-06-11T06:32:10.008Z,19.18
2023-06-11T06:36:12.268Z,19.44
2023-06-11T06:40:16.065Z,19.59
2023-06-11T06:44:18.458Z,19.76
2023-06-11T06:48:23.198Z,19.73
2023-06-11T06:52:25.561Z,19.85
2023-06-11T06:56:28.171Z,19.77
2023-06-11T07:00:30.199Z,20.12
2023-06-11T07:04:32.599Z,20.26
2023-06-11T07:08:35.651Z,20.20
2023-06-11T07:12:38.079Z,20.62
2023-06-11T07:16:40.477Z,20.53
2023-06-11T07:20:45.061Z,20.77
2023-06-11T07:24:49.224Z,21.05
2023-06-11T07:28:53.255Z,21.09
2023-06-11T07:32:55.797Z,21.14
2023-06-11T07:36:58.288Z,21.17
2023-06-11T07:41:02.640Z,21.55
2023-06-11T07:45:09.546Z,21.36
2023-06-11T07:49:11.747Z,21.21
2023-06-11T07:53:14.232Z,21.23
2023-06-11T07:57:17.593Z,21.16
2023-06-11T08:01:19.657Z,21.34
2023-06-11T08:05:23.138Z,21.43
2023-06-11T08:09:27.108Z,21.52
2023-06-11T08:13:30.514Z,21.64
2023-06-11T08:17:32.878Z,21.61
2023-06-11T08:21:35.046Z,22.02
2023-06-11T08:25:37.467Z,21.93
2023-06-11T08:29:39.634Z,21.76
2023-06-11T08:33:41.894Z,22.26
2023-06-11T08:37:44.068Z,22.15
2023-06-11T08:41:46.136Z,22.35
2023-06-11T08:45:49.369Z,22.09
2023-06-11T08:49:55.884Z,22.59
2023-06-11T08:53:58.198Z,22.50
2023-06-11T08:58:01.482Z,22.79
2023-06-11T09:02:04.149Z,22.91
2023-06-11T09:06:07.058Z,22.61
2023-06-11T09:10:11.978Z,22.95
2023-06-11T09:14:14.766Z,22.64
2023-06-11T09:18:21.129Z,22.47
2023-06-11T09:22:27.459Z,23.02
2023-06-11T09:26:29.548Z,23.25
2023-06-11T09:30:31.720Z,23.35
2023-06-11T09:34:34.173Z,23.56
2023-06-11T09:38:36.225Z,23.72
2023-06-11T09:42:39.537Z,23.80
2023-06-11T09:46:41.663Z,23.61
2023-06-11T09:50:44.461Z,24.06
2023-06-11T09:54:48.641Z,24.29
2023-06-11T09:58:51.830Z,24.23
2023-06-11T10:02:54.030Z,24.24
2023-06-11T10:06:56.656Z,24.36
2023-06-11T10:11:03.172Z,24.46
2023-06-11T10:15:10.335Z,24.41
2023-06-11T10:19:12.561Z,24.28
2023-06-11T10:23:14.599Z,24.10
2023-06-11T10:27:18.282Z,24.11
2023-06-11T10:31:27.283Z,23.80
2023-06-11T10:35:34.004Z,23.55
2023-06-11T10:39:35.828Z,24.05
2023-06-11T10:43:38.011Z,24.22
2023-06-11T10:47:43.940Z,24.68
2023-06-11T10:51:48.237Z,24.78
2023-06-11T10:55:50.863Z,24.45
2023-06-11T10:59:53.121Z,24.59
2023-06-11T11:03:55.295Z,24.14
2023-06-11T11:08:00.011Z,24.57
2023-06-11T11:12:03.083Z,25.03
2023-06-11T11:16:05.637Z,24.48
2023-06-11T11:20:09.312Z,24.00
2023-06-11T11:24:13.593Z,23.36
2023-06-11T11:28:15.937Z,23.00
2023-06-11T11:32:19.038Z,23.81
2023-06-11T11:36:23.354Z,23.66
2023-06-11T11:40:25.522Z,23.94
2023-06-11T11:44:28.568Z,24.71
2023-06-11T11:48:33.465Z,25.01
2023-06-11T11:52:38.445Z,25.04
2023-06-11T11:56:40.888Z,24.89
2023-06-11T12:00:49.291Z,25.32
2023-06-11T12:04:53.275Z,24.71
2023-06-11T12:08:55.560Z,25.04
2023-06-11T12:12:59.275Z,25.26
2023-06-11T12:17:01.552Z,25.62
2023-06-11T12:21:04.030Z,25.74
2023-06-11T12:25:06.722Z,25.73
2023-06-11T12:29:08.939Z,25.96
2023-06-11T12:33:11.878Z,25.40
2023-06-11T12:37:15.186Z,25.48
2023-06-11T12:41:17.519Z,25.51
2023-06-11T12:45:19.650Z,25.68
2023-06-11T12:49:24.100Z,25.64
2023-06-11T12:53:26.254Z,25.91
2023-06-11T12:57:28.314Z,26.29
2023-06-11T13:01:30.521Z,26.25
2023-06-11T13:05:32.702Z,25.99
2023-06-11T13:09:34.921Z,24.52
2023-06-11T13:13:37.033Z,23.66
2023-06-11T13:17:40.026Z,23.62
2023-06-11T13:21:42.215Z,24.55
2023-06-11T13:25:47.431Z,24.97
2023-06-11T13:29:50.563Z,25.11
2023-06-11T13:33:52.756Z,25.07
2023-06-11T13:37:54.697Z,25.96
2023-06-11T13:41:56.782Z,25.81
2023-06-11T13:45:59.824Z,26.28
2023-06-11T13:50:02.432Z,26.08
2023-06-11T13:54:04.567Z,26.62
2023-06-11T13:58:07.243Z,26.61
2023-06-11T14:02:09.624Z,26.41
2023-06-11T14:06:11.836Z,26.60
2023-06-11T14:10:14.136Z,25.89
2023-06-11T14:14:16.553Z,26.19
2023-06-11T14:18:18.571Z,26.40
2023-06-11T14:22:21.770Z,26.28
2023-06-11T14:26:23.868Z,25.03
2023-06-11T14:30:26.149Z,24.43
2023-06-11T14:34:28.240Z,23.98
2023-06-11T14:38:30.365Z,23.72
2023-06-11T14:42:32.345Z,24.38
2023-06-11T14:46:34.429Z,25.01
2023-06-11T14:50:36.589Z,25.53
2023-06-11T14:54:39.628Z,25.54
2023-06-11T14:58:41.775Z,25.15
2023-06-11T15:02:44.189Z,24.45
2023-06-11T15:06:46.288Z,23.95
2023-06-11T15:10:48.336Z,23.54
2023-06-11T15:14:50.526Z,23.26
2023-06-11T15:18:52.651Z,23.94
2023-06-11T15:22:54.740Z,24.77
2023-06-11T15:26:56.719Z,25.18
2023-06-11T15:30:58.789Z,25.40
2023-06-11T15:35:01.057Z,24.87
2023-06-11T15:39:03.860Z,24.13
2023-06-11T15:43:06.009Z,23.25
2023-06-11T15:47:07.820Z,22.79
2023-06-11T15:51:10.048Z,22.59
2023-06-11T15:55:13.266Z,22.42
2023-06-11T15:59:15.709Z,22.31
2023-06-11T16:03:17.929Z,22.30
2023-06-11T16:07:20.543Z,22.31
2023-06-11T16:11:22.562Z,22.33
2023-06-11T16:15:24.726Z,22.54
2023-06-11T16:19:27.116Z,22.46
2023-06-11T16:23:29.213Z,22.46
2023-06-11T16:27:31.426Z,22.54
2023-06-11T16:31:33.627Z,22.64
2023-06-11T16:35:35.799Z,22.62
2023-06-11T16:39:37.847Z,22.49
2023-06-11T16:43:42.198Z,22.36
2023-06-11T16:47:45.199Z,22.33
2023-06-11T16:51:47.794Z,22.35
2023-06-11T16:55:49.966Z,22.26
2023-06-11T16:59:52.298Z,22.14
2023-06-11T17:03:54.407Z,21.95
2023-06-11T17:07:59.781Z,21.73
2023-06-11T17:12:04.070Z,21.60
2023-06-11T17:16:07.009Z,21.56
2023-06-11T17:20:10.018Z,21.52
2023-06-11T17:24:14.092Z,21.74
2023-06-11T17:28:16.327Z,22.00
2023-06-11T17:32:18.745Z,21.97
2023-06-11T17:36:20.909Z,21.94
2023-06-11T17:40:28.424Z,21.85
2023-06-11T17:44:30.693Z,21.73
2023-06-11T17:48:32.820Z,21.58
2023-06-11T17:52:34.909Z,21.36
2023-06-11T17:56:37.680Z,21.05
2023-06-11T18:00:39.997Z,20.89
2023-06-11T18:04:42.264Z,20.81
2023-06-11T18:08:44.388Z,20.66
2023-06-11T18:12:46.597Z,20.50
2023-06-11T18:16:49.044Z,20.49
2023-06-11T18:20:51.419Z,20.52
2023-06-11T18:24:53.635Z,20.57
2023-06-11T18:28:55.941Z,20.55
2023-06-11T18:32:58.270Z,20.37
2023-06-11T18:37:00.530Z,20.23
2023-06-11T18:41:02.547Z,20.14
2023-06-11T18:45:05.238Z,19.98
2023-06-11T18:49:07.379Z,19.79
2023-06-11T18:53:11.716Z,19.53
2023-06-11T18:57:19.224Z,19.27
2023-06-11T19:01:21.520Z,19.07
2023-06-11T19:05:24.017Z,18.88
2023-06-11T19:09:26.289Z,18.65
2023-06-11T19:13:28.407Z,18.47
2023-06-11T19:17:31.304Z,18.23
2023-06-11T19:21:33.416Z,18.01
2023-06-11T19:25:35.643Z,17.81
2023-06-11T19:29:37.843Z,17.62
2023-06-11T19:33:39.881Z,17.43
2023-06-11T19:37:42.004Z,17.21
2023-06-11T19:41:44.905Z,17.05
2023-06-11T19:45:47.406Z,16.92
2023-06-11T19:49:49.555Z,16.75
2023-06-11T19:53:52.751Z,16.55
2023-06-11T19:58:00.599Z,16.41
2023-06-11T20:02:05.721Z,16.23
2023-06-11T20:06:08.825Z,16.10
2023-06-11T20:10:11.578Z,15.94
2023-06-11T20:14:14.025Z,15.72
2023-06-11T20:18:18.230Z,15.56
2023-06-11T20:22:20.868Z,15.47
2023-06-11T20:26:23.076Z,15.35
2023-06-11T20:30:25.702Z,15.21
2023-06-11T20:34:27.776Z,15.11
2023-06-11T20:38:29.873Z,14.96
2023-06-11T20:42:32.080Z,14.84
2023-06-11T20:46:34.320Z,14.72
2023-06-11T20:50:36.687Z,14.50
2023-06-11T20:54:38.700Z,14.43
2023-06-11T20:58:40.780Z,14.38
2023-06-11T21:02:43.041Z,14.26
2023-06-11T21:06:45.226Z,14.22
2023-06-11T21:10:48.008Z,14.06
2023-06-11T21:14:50.037Z,14.04
2023-06-11T21:18:52.182Z,13.99
2023-06-11T21:22:54.470Z,13.91
2023-06-11T21:26:56.622Z,13.84
2023-06-11T21:30:58.826Z,13.81
2023-06-11T21:35:01.118Z,13.72
2023-06-11T21:39:02.860Z,13.57
2023-06-11T21:43:05.010Z,13.51
2023-06-11T21:47:07.730Z,13.40
2023-06-11T21:51:09.805Z,13.34
2023-06-11T21:55:11.832Z,13.19
2023-06-11T21:59:13.941Z,13.14
2023-06-11T22:03:18.430Z,13.10
2023-06-11T22:07:22.368Z,13.01
2023-06-11T22:11:24.451Z,12.90
2023-06-11T22:15:27.062Z,12.86
2023-06-11T22:19:29.921Z,12.75
2023-06-11T22:23:49.530Z,12.64
2023-06-11T22:27:52.927Z,12.56
2023-06-11T22:31:54.940Z,12.54
2023-06-11T22:35:57.080Z,12.44
2023-06-11T22:39:59.341Z,12.41
2023-06-11T22:44:01.362Z,12.27
2023-06-11T22:48:06.781Z,12.16
2023-06-11T22:52:09.033Z,12.11
2023-06-11T22:56:12.740Z,12.03
2023-06-11T23:00:15.331Z,11.97
2023-06-11T23:04:17.625Z,11.98
2023-06-11T23:08:19.717Z,11.97
2023-06-11T23:12:21.903Z,12.06
2023-06-11T23:16:25.330Z,11.96
2023-06-11T23:20:28.597Z,11.90
2023-06-11T23:24:31.158Z,11.80
2023-06-11T23:28:33.231Z,11.77
2023-06-11T23:32:35.749Z,11.70
2023-06-11T23:36:41.002Z,11.54
2023-06-11T23:40:43.401Z,11.48
2023-06-11T23:44:45.613Z,11.37
2023-06-11T23:48:47.690Z,11.36
2023-06-11T23:52:51.732Z,11.25
2023-06-11T23:56:54.516Z,11.18
